createdAt,value
2024-02-17T00:00:22.521Z,58.22
2024-02-17T00:02:50.057Z,64.38
2024-02-17T00:05:17.737Z,62.35
2024-02-17T00:07:45.326Z,84.55
2024-02-17T00:10:12.802Z,80.40
2024-02-17T00:12:40.127Z,64.93
2024-02-17T00:15:08.270Z,71.57
2024-02-17T00:17:36.049Z,71.05
2024-02-17T00:20:04.815Z,58.50
2024-02-17T00:22:32.324Z,69.05
2024-02-17T00:24:59.615Z,61.83
2024-02-17T00:27:27.061Z,62.33
2024-02-17T00:29:54.370Z,61.35
2024-02-17T00:32:21.713Z,120.65
2024-02-17T00:34:49.522Z,59.58
2024-02-17T00:37:17.263Z,51.60
2024-02-17T00:39:44.651Z,57.28
2024-02-17T00:42:11.979Z,264.13
2024-02-17T00:44:39.346Z,271.23
2024-02-17T00:47:07.505Z,254.77
2024-02-17T00:49:34.964Z,217.43
2024-02-17T00:52:02.444Z,191.02
2024-02-17T00:54:29.851Z,102.75
2024-02-17T00:56:57.129Z,72.97
2024-02-17T00:59:24.768Z,64.28
2024-02-17T01:01:52.036Z,66.43
2024-02-17T01:04:19.479Z,68.50
2024-02-17T01:06:46.842Z,80.53
2024-02-17T01:09:16.522Z,91.50
2024-02-17T01:11:43.908Z,122.32
2024-02-17T01:14:11.224Z,214.45
2024-02-17T01:16:38.876Z,294.15
2024-02-17T01:19:06.427Z,246.68
2024-02-17T01:21:34.945Z,263.75
2024-02-17T01:24:02.608Z,348.20
2024-02-17T01:26:29.971Z,361.63
2024-02-17T01:28:57.262Z,307.75
2024-02-17T01:31:24.673Z,220.25
2024-02-17T01:33:52.366Z,210.00
2024-02-17T01:36:20.697Z,193.95
2024-02-17T01:38:48.410Z,208.38
2024-02-17T01:41:15.872Z,161.57
2024-02-17T01:43:43.142Z,197.35
2024-02-17T01:49:02.730Z,158.82
2024-02-17T01:51:30.623Z,211.93
2024-02-17T01:53:58.284Z,161.98
2024-02-17T01:56:27.260Z,123.22
2024-02-17T01:58:56.244Z,73.72
2024-02-17T02:01:25.220Z,78.20
2024-02-17T02:03:52.596Z,79.18
2024-02-17T02:06:25.394Z,77.25
2024-02-17T02:08:52.904Z,99.32
2024-02-17T02:11:20.865Z,142.70
2024-02-17T02:13:48.689Z,102.53
2024-02-17T02:16:19.394Z,136.77
2024-02-17T02:18:47.508Z,71.63
2024-02-17T02:21:15.089Z,75.78
2024-02-17T02:23:46.708Z,73.13
2024-02-17T02:26:14.318Z,76.15
2024-02-17T02:28:41.665Z,70.55
2024-02-17T02:31:08.998Z,69.00
2024-02-17T02:33:36.520Z,72.15
2024-02-17T02:36:04.145Z,65.82
2024-02-17T02:38:31.526Z,63.85
2024-02-17T02:40:58.901Z,62.13
2024-02-17T02:43:27.102Z,64.18
2024-02-17T02:45:54.814Z,64.85
2024-02-17T02:48:22.577Z,64.85
2024-02-17T02:50:49.931Z,71.40
2024-02-17T02:53:17.669Z,68.38
2024-02-17T02:55:45.013Z,64.43
2024-02-17T02:58:12.736Z,65.63
2024-02-17T03:00:40.183Z,76.18
2024-02-17T03:03:07.603Z,73.07
2024-02-17T03:05:37.259Z,73.20
2024-02-17T03:08:05.959Z,74.50
2024-02-17T03:10:33.736Z,70.65
2024-02-17T03:13:01.205Z,76.53
2024-02-17T03:15:28.604Z,92.32
2024-02-17T03:17:55.913Z,112.18
2024-02-17T03:20:23.319Z,120.38
2024-02-17T03:22:50.806Z,134.10
2024-02-17T03:25:18.125Z,113.28
2024-02-17T03:27:45.554Z,130.05
2024-02-17T03:30:13.062Z,132.85
2024-02-17T03:32:40.500Z,109.03
2024-02-17T03:35:08.931Z,100.80
2024-02-17T03:37:36.331Z,107.72
2024-02-17T03:40:08.068Z,100.18
2024-02-17T03:42:36.125Z,79.72
2024-02-17T03:45:03.626Z,76.13
2024-02-17T03:47:31.109Z,139.77
2024-02-17T03:49:58.494Z,127.63
2024-02-17T03:52:25.886Z,106.13
2024-02-17T03:54:54.155Z,108.50
2024-02-17T03:57:21.629Z,138.52
2024-02-17T03:59:50.094Z,127.75
2024-02-17T04:02:17.408Z,135.70
2024-02-17T04:04:44.771Z,194.68
2024-02-17T04:07:12.259Z,199.23
2024-02-17T04:09:39.846Z,228.55
2024-02-17T04:12:07.325Z,244.63
2024-02-17T04:14:35.212Z,284.33
2024-02-17T04:17:02.526Z,200.05
2024-02-17T04:19:29.927Z,256.05
2024-02-17T04:21:57.253Z,197.13
2024-02-17T04:24:24.708Z,284.52
2024-02-17T04:26:52.223Z,301.42
2024-02-17T04:29:21.111Z,224.35
2024-02-17T04:31:48.395Z,209.40
2024-02-17T04:34:15.946Z,239.63
2024-02-17T04:36:43.566Z,174.35
2024-02-17T04:39:13.526Z,220.23
2024-02-17T04:41:41.088Z,194.68
2024-02-17T04:44:09.292Z,149.65
2024-02-17T04:46:36.556Z,164.85
2024-02-17T04:49:04.027Z,160.23
2024-02-17T04:51:32.510Z,140.55
2024-02-17T04:54:00.317Z,168.43
2024-02-17T04:56:28.702Z,176.73
2024-02-17T04:58:55.980Z,150.27
2024-02-17T05:01:24.438Z,171.68
2024-02-17T05:03:52.041Z,178.98
2024-02-17T05:06:19.613Z,152.50
2024-02-17T05:08:47.106Z,201.80
2024-02-17T05:11:14.657Z,148.00
2024-02-17T05:13:42.162Z,151.38
2024-02-17T05:16:09.566Z,131.82
2024-02-17T05:18:36.999Z,209.98
2024-02-17T05:21:05.240Z,233.55
2024-02-17T05:23:34.775Z,240.23
2024-02-17T05:26:02.084Z,233.20
2024-02-17T05:28:29.963Z,224.48
2024-02-17T05:30:57.605Z,254.70
2024-02-17T05:33:25.208Z,231.18
2024-02-17T05:35:52.957Z,212.32
2024-02-17T05:38:20.454Z,194.00
2024-02-17T05:40:47.796Z,231.15
2024-02-17T05:43:15.025Z,247.02
2024-02-17T05:45:42.333Z,172.95
2024-02-17T05:48:09.766Z,184.35
2024-02-17T05:50:38.078Z,175.93
2024-02-17T05:53:05.378Z,183.18
2024-02-17T05:55:32.677Z,193.48
2024-02-17T05:58:00.405Z,218.02
2024-02-17T06:00:27.726Z,183.50
2024-02-17T06:02:55.121Z,146.10
2024-02-17T06:05:22.436Z,180.00
2024-02-17T06:07:50.261Z,168.05
2024-02-17T06:10:17.633Z,205.52
2024-02-17T06:12:44.963Z,181.85
2024-02-17T06:15:12.351Z,171.77
2024-02-17T06:17:44.175Z,140.82
2024-02-17T06:20:30.938Z,116.57
2024-02-17T06:22:58.828Z,137.27
2024-02-17T06:25:26.183Z,98.30
2024-02-17T06:27:53.618Z,123.13
2024-02-17T06:30:21.042Z,115.22
2024-02-17T06:32:48.426Z,110.72
2024-02-17T06:35:15.939Z,125.90
2024-02-17T06:37:43.247Z,134.73
2024-02-17T06:40:10.931Z,103.18
2024-02-17T06:42:38.268Z,93.82
2024-02-17T06:45:05.874Z,99.38
2024-02-17T06:47:33.108Z,98.63
2024-02-17T06:50:00.577Z,80.80
2024-02-17T06:52:28.072Z,82.28
2024-02-17T06:54:55.391Z,99.22
2024-02-17T06:57:22.717Z,86.32
2024-02-17T06:59:49.973Z,90.55
2024-02-17T07:02:17.609Z,103.50
2024-02-17T07:04:44.970Z,92.82
2024-02-17T07:07:12.288Z,100.10
2024-02-17T07:09:40.653Z,81.45
2024-02-17T07:12:08.253Z,85.63
2024-02-17T07:14:36.119Z,87.60
2024-02-17T07:17:04.952Z,79.45
2024-02-17T07:19:32.683Z,82.95
2024-02-17T07:22:00.236Z,78.50
2024-02-17T07:24:28.872Z,79.85
2024-02-17T07:26:56.189Z,76.47
2024-02-17T07:29:23.408Z,80.75
2024-02-17T07:31:50.713Z,80.68
2024-02-17T07:34:18.090Z,80.85
2024-02-17T07:36:47.954Z,78.72
2024-02-17T07:39:15.457Z,107.45
2024-02-17T07:41:42.725Z,90.20
2024-02-17T07:44:10.662Z,98.10
2024-02-17T07:46:37.981Z,93.43
2024-02-17T07:49:05.439Z,92.03
2024-02-17T07:51:33.225Z,92.05
2024-02-17T07:54:01.905Z,97.50
2024-02-17T07:56:29.617Z,93.65
2024-02-17T07:58:57.538Z,96.50
2024-02-17T08:01:24.969Z,93.85
2024-02-17T08:03:52.473Z,95.28
2024-02-17T08:06:21.017Z,97.50
2024-02-17T08:08:50.091Z,101.20
2024-02-17T08:11:17.811Z,93.32
2024-02-17T08:13:45.149Z,95.80
2024-02-17T08:16:12.668Z,97.93
2024-02-17T08:18:43.442Z,91.90
2024-02-17T08:21:11.551Z,94.03
2024-02-17T08:23:38.877Z,89.22
2024-02-17T08:26:08.684Z,92.10
2024-02-17T08:28:36.286Z,96.70
2024-02-17T08:31:04.054Z,91.65
2024-02-17T08:33:31.474Z,93.72
2024-02-17T08:35:58.845Z,89.18
2024-02-17T08:38:26.333Z,98.95
2024-02-17T08:40:53.656Z,90.43
2024-02-17T08:43:20.937Z,98.43
2024-02-17T08:45:48.277Z,93.47
2024-02-17T08:48:16.271Z,95.28
2024-02-17T08:50:43.711Z,91.28
2024-02-17T08:53:11.035Z,85.40
2024-02-17T08:55:38.519Z,87.85
2024-02-17T08:58:06.873Z,83.40
2024-02-17T09:00:37.330Z,95.15
2024-02-17T09:03:04.627Z,93.25
2024-02-17T09:05:31.961Z,90.03
2024-02-17T09:07:59.383Z,93.47
2024-02-17T09:10:27.663Z,91.47
2024-02-17T09:12:55.053Z,96.70
2024-02-17T09:15:22.381Z,93.18
2024-02-17T09:17:50.120Z,93.07
2024-02-17T09:20:18.137Z,90.32
2024-02-17T09:22:45.482Z,89.53
2024-02-17T09:25:12.887Z,91.75
2024-02-17T09:27:40.428Z,97.50
2024-02-17T09:30:09.098Z,100.32
2024-02-17T09:32:36.685Z,94.57
2024-02-17T09:35:04.689Z,94.43
2024-02-17T09:37:32.239Z,89.82
2024-02-17T09:40:01.055Z,101.57
2024-02-17T09:42:29.378Z,95.88
2024-02-17T09:44:56.854Z,95.82
2024-02-17T09:47:25.522Z,96.70
2024-02-17T09:49:54.253Z,101.13
2024-02-17T09:52:22.542Z,104.60
2024-02-17T09:54:49.981Z,98.30
2024-02-17T09:57:19.183Z,94.55
2024-02-17T09:59:46.851Z,98.78
2024-02-17T10:02:14.155Z,106.55
2024-02-17T10:05:08.352Z,108.75
2024-02-17T10:07:48.106Z,101.57
2024-02-17T10:10:18.011Z,127.68
2024-02-17T10:12:54.932Z,122.20
2024-02-17T10:15:23.712Z,129.70
2024-02-17T10:17:54.414Z,119.63
2024-02-17T10:20:22.100Z,123.97
2024-02-17T10:22:49.876Z,125.00
2024-02-17T10:25:18.818Z,119.68
2024-02-17T10:27:47.940Z,128.35
2024-02-17T10:30:21.779Z,128.05
2024-02-17T10:32:49.644Z,133.70
2024-02-17T10:35:18.027Z,130.50
2024-02-17T10:37:49.559Z,135.48
2024-02-17T10:40:17.612Z,140.77
2024-02-17T10:42:47.367Z,133.05
2024-02-17T10:45:14.962Z,145.20
2024-02-17T10:47:46.156Z,147.20
2024-02-17T10:50:17.781Z,141.43
2024-02-17T10:52:50.379Z,148.55
2024-02-17T10:55:24.065Z,151.25
2024-02-17T10:57:58.089Z,153.07
2024-02-17T11:00:26.473Z,150.77
2024-02-17T11:03:06.219Z,151.13
2024-02-17T11:05:38.028Z,154.13
2024-02-17T11:08:06.440Z,161.05
2024-02-17T11:10:34.104Z,153.80
2024-02-17T11:13:02.732Z,154.30
2024-02-17T11:15:32.871Z,150.73
2024-02-17T11:18:02.889Z,151.50
2024-02-17T11:20:30.559Z,145.20
2024-02-17T11:23:01.202Z,153.77
2024-02-17T11:25:39.994Z,155.15
2024-02-17T11:28:22.299Z,148.02
2024-02-17T11:30:51.820Z,149.32
2024-02-17T11:33:33.175Z,155.00
2024-02-17T11:36:04.909Z,153.85
2024-02-17T11:38:32.903Z,158.80
2024-02-17T11:41:01.795Z,153.15
2024-02-17T11:43:31.257Z,156.27
2024-02-17T11:45:59.411Z,154.55
2024-02-17T11:48:29.604Z,163.55
2024-02-17T11:51:10.430Z,158.32
2024-02-17T11:53:41.907Z,159.10
2024-02-17T11:56:09.592Z,160.13
2024-02-17T11:58:37.749Z,159.55
2024-02-17T12:01:05.274Z,169.05
2024-02-17T12:03:33.130Z,160.05
2024-02-17T12:06:04.220Z,162.82
2024-02-17T12:08:32.291Z,163.50
2024-02-17T12:10:59.897Z,159.23
2024-02-17T12:13:28.146Z,161.73
2024-02-17T12:16:05.261Z,151.70
2024-02-17T12:18:33.920Z,152.60
2024-02-17T12:21:02.480Z,145.25
2024-02-17T12:23:30.911Z,141.93
2024-02-17T12:25:58.859Z,142.65
2024-02-17T12:28:26.700Z,135.57
2024-02-17T12:30:54.741Z,162.63
2024-02-17T12:33:22.781Z,153.05
2024-02-17T12:35:51.656Z,155.10
2024-02-17T12:38:21.406Z,157.23
2024-02-17T12:40:49.561Z,150.43
2024-02-17T12:43:29.500Z,153.20
2024-02-17T12:46:01.842Z,146.93
2024-02-17T12:48:29.380Z,148.35
2024-02-17T12:50:57.677Z,144.75
2024-02-17T12:53:26.309Z,146.10
2024-02-17T12:55:54.899Z,140.25
2024-02-17T12:58:23.151Z,146.63
2024-02-17T13:00:50.694Z,147.50
2024-02-17T13:03:19.311Z,151.02
2024-02-17T13:05:47.066Z,137.85
2024-02-17T13:08:15.771Z,135.75
2024-02-17T13:10:43.986Z,146.43
2024-02-17T13:13:12.196Z,155.70
2024-02-17T13:15:39.683Z,140.27
2024-02-17T13:18:08.440Z,145.00
2024-02-17T13:20:35.984Z,139.98
2024-02-17T13:23:03.662Z,143.35
2024-02-17T13:25:30.984Z,147.32
2024-02-17T13:27:58.675Z,138.30
2024-02-17T13:30:26.198Z,134.73
2024-02-17T13:32:53.685Z,135.32
2024-02-17T13:35:21.515Z,128.68
2024-02-17T13:37:49.937Z,135.38
2024-02-17T13:40:20.812Z,138.27
2024-02-17T13:42:48.305Z,129.75
2024-02-17T13:45:15.832Z,125.25
2024-02-17T13:47:43.301Z,132.65
2024-02-17T13:50:13.793Z,127.03
2024-02-17T13:52:41.634Z,128.70
2024-02-17T13:55:11.248Z,120.22
2024-02-17T13:57:38.705Z,126.07
2024-02-17T14:00:06.574Z,118.32
2024-02-17T14:02:34.071Z,111.50
2024-02-17T14:05:03.989Z,113.93
2024-02-17T14:07:31.898Z,135.00
2024-02-17T14:09:59.442Z,108.82
2024-02-17T14:12:26.898Z,112.60
2024-02-17T14:14:54.228Z,111.97
2024-02-17T14:17:24.951Z,109.38
2024-02-17T14:19:52.383Z,109.70
2024-02-17T14:22:20.046Z,109.68
2024-02-17T14:24:47.497Z,119.90
2024-02-17T14:27:15.081Z,110.15
2024-02-17T14:29:47.164Z,104.00
2024-02-17T14:32:14.681Z,109.47
2024-02-17T14:34:42.578Z,97.03
2024-02-17T14:37:10.021Z,112.00
2024-02-17T14:39:38.885Z,105.30
2024-02-17T14:42:06.725Z,110.72
2024-02-17T14:44:34.116Z,106.40
2024-02-17T14:47:02.042Z,109.85
2024-02-17T14:49:29.513Z,109.85
2024-02-17T14:51:57.168Z,112.38
2024-02-17T14:54:25.017Z,112.28
2024-02-17T14:56:52.530Z,135.98
2024-02-17T14:59:19.876Z,112.18
2024-02-17T15:01:47.238Z,105.28
2024-02-17T15:04:16.312Z,111.03
2024-02-17T15:06:43.921Z,108.95
2024-02-17T15:09:11.568Z,112.82
2024-02-17T15:11:39.526Z,109.35
2024-02-17T15:14:06.923Z,107.60
2024-02-17T15:16:34.276Z,112.30
2024-02-17T15:19:01.977Z,113.47
2024-02-17T15:21:29.530Z,270.90
2024-02-17T15:23:57.055Z,128.10
2024-02-17T15:26:25.001Z,121.72
2024-02-17T15:28:52.532Z,127.50
2024-02-17T15:31:19.925Z,134.50
2024-02-17T15:33:47.628Z,131.23
2024-02-17T15:36:17.758Z,138.65
2024-02-17T15:38:46.196Z,126.60
2024-02-17T15:41:13.601Z,122.10
2024-02-17T15:43:40.918Z,131.18
2024-02-17T15:46:13.611Z,131.60
2024-02-17T15:48:41.087Z,126.72
2024-02-17T15:51:11.318Z,125.68
2024-02-17T15:53:38.952Z,128.45
2024-02-17T15:56:14.182Z,127.82
2024-02-17T15:58:41.902Z,128.13
2024-02-17T16:01:09.537Z,132.45
2024-02-17T16:03:38.079Z,132.82
2024-02-17T16:06:09.143Z,129.90
2024-02-17T16:08:38.190Z,130.82
2024-02-17T16:11:11.492Z,128.77
2024-02-17T16:13:45.694Z,141.95
2024-02-17T16:16:16.339Z,138.23
2024-02-17T16:18:46.832Z,134.63
2024-02-17T16:21:16.175Z,127.00
2024-02-17T16:23:43.687Z,135.93
2024-02-17T16:26:11.701Z,187.30
2024-02-17T16:28:39.214Z,162.98
2024-02-17T16:31:08.047Z,138.05
2024-02-17T16:33:39.054Z,141.13
2024-02-17T16:36:08.341Z,135.82
2024-02-17T16:38:36.066Z,140.30
2024-02-17T16:41:03.746Z,142.70
2024-02-17T16:43:32.628Z,137.98
2024-02-17T16:46:01.514Z,142.63
2024-02-17T16:48:30.688Z,152.93
2024-02-17T16:50:58.319Z,156.05
2024-02-17T16:53:25.734Z,164.23
2024-02-17T16:55:53.053Z,170.20
2024-02-17T16:58:20.378Z,161.05
2024-02-17T17:00:48.639Z,156.85
2024-02-17T17:03:17.542Z,156.95
2024-02-17T17:05:45.467Z,155.00
2024-02-17T17:08:12.975Z,155.30
2024-02-17T17:10:40.384Z,153.68
2024-02-17T17:13:08.763Z,160.05
2024-02-17T17:15:38.459Z,161.65
2024-02-17T17:18:06.905Z,169.32
2024-02-17T17:20:34.437Z,173.05
2024-02-17T17:23:01.908Z,186.65
2024-02-17T17:25:29.495Z,196.23
2024-02-17T17:27:57.381Z,214.20
2024-02-17T17:30:26.764Z,205.82
2024-02-17T17:32:54.565Z,182.75
2024-02-17T17:35:23.313Z,164.38
2024-02-17T17:37:50.748Z,167.52
2024-02-17T17:40:18.554Z,169.85
2024-02-17T17:42:55.813Z,167.50
2024-02-17T17:45:27.227Z,170.43
2024-02-17T17:47:55.112Z,177.90
2024-02-17T17:50:23.490Z,185.85
2024-02-17T17:52:52.748Z,179.40
2024-02-17T17:55:20.921Z,175.63
2024-02-17T17:57:48.472Z,166.80
2024-02-17T18:00:19.937Z,167.23
2024-02-17T18:02:48.369Z,196.63
2024-02-17T18:05:16.323Z,167.95
2024-02-17T18:07:44.062Z,185.50
2024-02-17T18:10:11.708Z,167.23
2024-02-17T18:12:39.283Z,163.98
2024-02-17T18:15:08.143Z,155.77
2024-02-17T18:17:37.000Z,172.50
2024-02-17T18:20:06.303Z,167.43
2024-02-17T18:22:34.141Z,157.63
2024-02-17T18:25:02.063Z,167.48
2024-02-17T18:27:29.900Z,162.70
2024-02-17T18:29:57.315Z,167.27
2024-02-17T18:32:24.905Z,158.55
2024-02-17T18:34:52.340Z,165.90
2024-02-17T18:37:20.010Z,175.77
2024-02-17T18:39:47.458Z,170.43
2024-02-17T18:42:15.029Z,167.60
2024-02-17T18:44:42.406Z,184.32
2024-02-17T18:47:09.809Z,176.63
2024-02-17T18:49:37.600Z,196.57
2024-02-17T18:52:06.346Z,187.57
2024-02-17T18:54:33.926Z,173.43
2024-02-17T18:57:01.657Z,173.80
2024-02-17T18:59:28.932Z,177.85
2024-02-17T19:01:56.379Z,189.27
2024-02-17T19:04:23.902Z,177.75
2024-02-17T19:06:51.510Z,184.55
2024-02-17T19:09:18.819Z,194.00
2024-02-17T19:11:46.383Z,197.90
2024-02-17T19:14:15.981Z,180.07
2024-02-17T19:16:43.258Z,215.43
2024-02-17T19:19:10.762Z,208.07
2024-02-17T19:21:38.474Z,185.98
2024-02-17T19:24:07.096Z,215.10
2024-02-17T19:26:35.787Z,183.57
2024-02-17T19:29:03.377Z,174.50
2024-02-17T19:31:30.665Z,178.68
2024-02-17T19:33:58.403Z,165.80
2024-02-17T19:36:25.820Z,189.38
2024-02-17T19:38:53.193Z,182.20
2024-02-17T19:41:20.614Z,190.68
2024-02-17T19:43:49.782Z,182.85
2024-02-17T19:46:17.513Z,185.00
2024-02-17T19:48:44.982Z,187.57
2024-02-17T19:51:12.764Z,185.93
2024-02-17T19:53:40.791Z,185.63
2024-02-17T19:56:08.415Z,192.07
2024-02-17T19:58:35.710Z,227.30
2024-02-17T20:01:03.170Z,228.70
2024-02-17T20:03:31.347Z,229.60
2024-02-17T20:05:59.152Z,219.35
2024-02-17T20:08:26.601Z,230.52
2024-02-17T20:10:54.157Z,215.70
2024-02-17T20:13:22.550Z,225.95
2024-02-17T20:15:52.229Z,238.73
2024-02-17T20:18:22.505Z,234.33
2024-02-17T20:20:51.356Z,195.95
2024-02-17T20:23:18.872Z,162.68
2024-02-17T20:25:46.215Z,165.55
2024-02-17T20:28:13.668Z,172.80
2024-02-17T20:30:41.377Z,195.15
2024-02-17T20:33:11.921Z,175.10
2024-02-17T20:35:39.391Z,176.70
2024-02-17T20:38:06.744Z,190.65
2024-02-17T20:40:34.064Z,184.13
2024-02-17T20:43:02.816Z,180.73
2024-02-17T20:45:30.655Z,186.43
2024-02-17T20:47:58.266Z,192.52
2024-02-17T20:50:26.257Z,186.60
2024-02-17T20:52:53.596Z,143.23
2024-02-17T20:55:22.470Z,142.45
2024-02-17T20:57:50.809Z,139.82
2024-02-17T21:00:18.608Z,135.10
2024-02-17T21:02:45.972Z,137.95
2024-02-17T21:05:13.502Z,154.35
2024-02-17T21:07:40.972Z,184.48
2024-02-17T21:10:08.752Z,169.48
2024-02-17T21:12:36.284Z,174.63
2024-02-17T21:15:05.329Z,182.13
2024-02-17T21:17:34.349Z,188.50
2024-02-17T21:20:02.017Z,182.98
2024-02-17T21:22:29.677Z,195.93
2024-02-17T21:24:57.065Z,212.77
2024-02-17T21:27:24.425Z,237.90
2024-02-17T21:29:51.793Z,224.88
2024-02-17T21:32:19.451Z,222.63
2024-02-17T21:34:48.742Z,226.85
2024-02-17T21:37:16.318Z,228.90
2024-02-17T21:39:44.613Z,211.85
2024-02-17T21:42:13.116Z,219.88
2024-02-17T21:44:40.883Z,229.77
2024-02-17T21:47:08.196Z,221.30
2024-02-17T21:49:35.638Z,143.02
2024-02-17T21:52:04.200Z,123.00
2024-02-17T21:54:31.824Z,98.53
2024-02-17T21:56:59.507Z,110.35
2024-02-17T21:59:26.989Z,113.50
2024-02-17T22:02:01.439Z,123.20
2024-02-17T22:04:32.952Z,134.80
2024-02-17T22:07:00.955Z,147.57
2024-02-17T22:09:29.231Z,142.63
2024-02-17T22:11:56.748Z,141.50
2024-02-17T22:14:24.120Z,153.40
2024-02-17T22:16:51.577Z,118.13
2024-02-17T22:19:19.114Z,142.88
2024-02-17T22:21:46.675Z,153.35
2024-02-17T22:24:14.139Z,161.00
2024-02-17T22:26:41.563Z,138.05
2024-02-17T22:29:10.233Z,138.75
2024-02-17T22:31:37.772Z,139.70
2024-02-17T22:34:06.412Z,148.85
2024-02-17T22:36:34.434Z,144.98
2024-02-17T22:39:02.189Z,136.35
2024-02-17T22:41:29.696Z,172.35
2024-02-17T22:44:00.137Z,142.25
2024-02-17T22:46:27.645Z,134.18
2024-02-17T22:48:55.145Z,146.13
2024-02-17T22:51:23.716Z,114.20
2024-02-17T22:53:51.171Z,148.55
2024-02-17T22:56:18.636Z,123.72
2024-02-17T22:58:46.092Z,119.15
2024-02-17T23:01:14.385Z,114.93
2024-02-17T23:03:42.179Z,122.20
2024-02-17T23:06:10.708Z,128.07
2024-02-17T23:08:38.313Z,166.85
2024-02-17T23:11:05.777Z,142.07
2024-02-17T23:13:33.442Z,156.13
2024-02-17T23:16:00.897Z,160.80
2024-02-17T23:18:28.922Z,172.35
2024-02-17T23:20:56.444Z,181.20
2024-02-17T23:23:25.953Z,168.65
2024-02-17T23:25:53.273Z,188.82
2024-02-17T23:28:20.604Z,182.30
2024-02-17T23:30:48.121Z,151.70
2024-02-17T23:33:15.545Z,97.22
2024-02-17T23:35:43.266Z,122.95
2024-02-17T23:38:10.717Z,134.07
2024-02-17T23:40:38.155Z,142.02
2024-02-17T23:43:05.519Z,140.32
2024-02-17T23:45:35.122Z,140.60
2024-02-17T23:48:03.657Z,158.20
2024-02-17T23:50:32.563Z,160.02
2024-02-17T23:52:59.998Z,154.00
2024-02-17T23:55:27.413Z,153.88
2024-02-17T23:57:54.931Z,159.40
